Time;durP1;ratioP1;P1;durP2;ratioP2;P2;SDS_P1;SDS_P2;PMS_P1;PMS_P2;Temp;Humidity;BMP_temperature;BMP_pressure;BME280_temperature;BME280_humidity;BME280_pressure;Samples;Min_cycle;Max_cycle;Signal;HPM_P1;HPM_P2
2022/12/09 00:01:21;;;;;;;20.27;13.90;;;2.90;99.90;;;;;;5053882;28;20228;-78
2022/12/09 00:04:06;;;;;;;17.73;13.13;;;2.80;99.90;;;;;;5047044;28;20232;-78
2022/12/09 00:06:53;;;;;;;18.20;13.18;;;2.60;99.90;;;;;;5050721;28;20212;-78
2022/12/09 00:09:39;;;;;;;21.08;14.30;;;2.50;99.90;;;;;;5046981;28;20574;-78
2022/12/09 00:12:25;;;;;;;22.17;14.55;;;2.30;99.90;;;;;;5045329;28;20301;-78
2022/12/09 00:15:11;;;;;;;17.67;13.85;;;2.30;99.90;;;;;;5044298;28;20268;-78
2022/12/09 00:17:57;;;;;;;19.23;13.40;;;2.40;99.90;;;;;;5043601;28;20232;-78
2022/12/09 00:20:42;;;;;;;21.50;14.02;;;2.50;99.90;;;;;;5043294;28;20694;-78
2022/12/09 00:23:29;;;;;;;18.80;14.25;;;2.60;99.90;;;;;;5046084;28;20224;-78
2022/12/09 00:26:15;;;;;;;20.90;12.73;;;2.70;99.90;;;;;;5042617;28;20201;-77
2022/12/09 00:29:01;;;;;;;18.08;13.93;;;2.70;99.90;;;;;;5050923;28;20200;-78
2022/12/09 00:31:47;;;;;;;24.08;12.88;;;2.80;99.90;;;;;;5045526;28;20197;-78
2022/12/09 00:34:32;;;;;;;21.70;14.07;;;2.70;99.90;;;;;;5046631;28;20753;-78
2022/12/09 00:37:18;;;;;;;17.88;13.75;;;2.60;99.90;;;;;;5051846;28;20216;-77
2022/12/09 00:40:06;;;;;;;20.33;13.30;;;2.30;99.90;;;;;;5044219;28;20205;-78
2022/12/09 00:42:52;;;;;;;25.73;14.73;;;2.20;99.90;;;;;;5050245;28;20209;-78
2022/12/09 00:45:37;;;;;;;19.42;13.57;;;2.20;99.90;;;;;;5057276;28;20224;-78
2022/12/09 00:48:23;;;;;;;19.10;13.82;;;2.20;99.90;;;;;;5053159;28;20260;-78
2022/12/09 00:51:12;;;;;;;20.40;13.45;;;2.20;99.90;;;;;;5046676;28;20198;-77
2022/12/09 00:53:58;;;;;;;22.50;15.60;;;2.20;99.90;;;;;;5045017;28;20614;-78
2022/12/09 00:56:45;;;;;;;18.58;14.07;;;2.20;99.90;;;;;;5054938;28;20227;-78
2022/12/09 00:59:30;;;;;;;26.15;14.30;;;2.30;99.90;;;;;;5055062;28;20576;-77
2022/12/09 01:02:16;;;;;;;21.52;13.98;;;2.20;99.90;;;;;;5055335;28;20205;-78
2022/12/09 01:05:02;;;;;;;19.45;14.57;;;2.00;99.90;;;;;;5044851;28;20232;-78
2022/12/09 01:07:47;;;;;;;20.48;14.25;;;1.90;99.90;;;;;;5055805;28;20574;-78
2022/12/09 01:10:33;;;;;;;20.40;13.30;;;1.90;99.90;;;;;;5047610;28;20205;-78
2022/12/09 01:13:20;;;;;;;21.60;15.45;;;1.90;99.90;;;;;;5053266;28;20672;-78
2022/12/09 01:16:14;;;;;;;21.55;16.00;;;1.80;99.90;;;;;;5052566;28;20205;-78
2022/12/09 01:19:01;;;;;;;24.10;15.45;;;1.70;99.90;;;;;;5051502;28;20213;-78
2022/12/09 01:21:47;;;;;;;21.92;14.93;;;1.70;99.90;;;;;;5049005;28;20205;-78
2022/12/09 01:24:32;;;;;;;20.67;14.52;;;1.70;99.90;;;;;;5045712;28;20267;-78
2022/12/09 01:27:18;;;;;;;24.08;17.00;;;1.80;99.90;;;;;;5056026;28;20216;-78
2022/12/09 01:30:07;;;;;;;23.92;13.98;;;2.00;99.90;;;;;;5055165;28;20197;-78
2022/12/09 01:32:52;;;;;;;23.35;14.20;;;2.00;99.90;;;;;;5053998;28;20402;-78
2022/12/09 01:35:41;;;;;;;20.23;13.85;;;1.90;99.90;;;;;;5053360;28;20217;-78
2022/12/09 01:38:26;;;;;;;20.45;14.93;;;1.80;99.90;;;;;;5053298;28;20208;-78
2022/12/09 01:41:12;;;;;;;24.08;15.70;;;1.80;99.90;;;;;;5052962;28;20277;-78
2022/12/09 01:44:09;;;;;;;23.38;13.10;;;1.80;99.90;;;;;;5048991;28;20293;-78
2022/12/09 01:46:57;;;;;;;20.02;13.50;;;1.80;99.90;;;;;;5048197;28;20917;-78
2022/12/09 01:49:46;;;;;;;23.05;15.32;;;1.50;99.90;;;;;;5040731;28;20212;-78
2022/12/09 01:52:32;;;;;;;23.27;16.30;;;1.50;99.90;;;;;;5045910;28;20201;-78
2022/12/09 01:55:18;;;;;;;24.75;14.65;;;1.40;99.90;;;;;;5047924;28;20228;-78
2022/12/09 01:58:04;;;;;;;25.33;15.13;;;1.50;99.90;;;;;;5044679;28;20208;-78
2022/12/09 02:00:50;;;;;;;17.80;13.32;;;1.70;99.90;;;;;;5046409;28;20633;-78
2022/12/09 02:03:37;;;;;;;18.42;12.98;;;1.60;99.90;;;;;;5043853;28;20208;-78
2022/12/09 02:06:23;;;;;;;20.02;12.50;;;1.60;99.90;;;;;;5044348;28;20215;-78
2022/12/09 02:09:09;;;;;;;20.38;12.80;;;1.70;99.90;;;;;;5047855;28;20283;-78
2022/12/09 02:12:07;;;;;;;22.30;12.15;;;1.60;99.90;;;;;;5042088;28;20205;-78
2022/12/09 02:15:01;;;;;;;16.98;12.50;;;1.60;99.90;;;;;;5051220;28;20721;-78
2022/12/09 02:17:52;;;;;;;17.45;11.93;;;1.70;99.90;;;;;;5048482;28;20220;-78
2022/12/09 02:20:42;;;;;;;17.42;13.35;;;1.80;99.90;;;;;;5046224;28;20227;-79
2022/12/09 02:23:34;;;;;;;17.95;12.32;;;1.90;99.90;;;;;;5043775;28;20209;-78
2022/12/09 02:29:18;;;;;;;17.85;13.15;;;2.00;99.90;;;;;;5040837;28;20733;-77
2022/12/09 02:32:22;;;;;;;22.38;12.95;;;2.00;99.90;;;;;;5042608;28;21000;-76
2022/12/09 02:35:13;;;;;;;18.13;12.68;;;2.00;99.90;;;;;;5035688;28;20870;-76
2022/12/09 02:38:05;;;;;;;18.88;12.68;;;1.90;99.90;;;;;;5055515;28;20234;-75
2022/12/09 02:40:53;;;;;;;19.70;13.07;;;1.80;99.90;;;;;;5051967;28;20208;-76
2022/12/09 02:43:44;;;;;;;16.55;11.43;;;1.70;99.90;;;;;;5054741;28;20334;-75
2022/12/09 02:46:31;;;;;;;17.75;12.45;;;1.50;99.90;;;;;;5060529;28;20204;-73
2022/12/09 02:49:19;;;;;;;16.25;12.52;;;1.40;99.90;;;;;;5060820;28;20686;-75
2022/12/09 02:52:06;;;;;;;19.20;13.27;;;1.30;99.90;;;;;;5057641;28;20672;-76
2022/12/09 02:54:53;;;;;;;22.90;14.07;;;1.30;99.90;;;;;;5060867;28;20204;-74
2022/12/09 02:57:40;;;;;;;19.13;12.68;;;1.20;99.90;;;;;;5056292;28;20236;-75
2022/12/09 03:00:26;;;;;;;20.92;13.20;;;1.30;99.90;;;;;;5061606;28;20197;-75
2022/12/09 03:03:16;;;;;;;19.38;12.05;;;1.50;99.90;;;;;;5058793;28;20275;-76
2022/12/09 03:06:08;;;;;;;17.00;11.82;;;1.60;99.90;;;;;;5057897;28;20306;-75
2022/12/09 03:09:02;;;;;;;19.17;12.48;;;1.70;99.90;;;;;;5060448;28;20208;-76
2022/12/09 03:11:49;;;;;;;16.70;11.73;;;1.70;99.90;;;;;;5058011;28;20702;-75
2022/12/09 03:14:40;;;;;;;15.80;11.68;;;1.60;99.90;;;;;;5056525;28;20686;-76
2022/12/09 03:17:31;;;;;;;19.77;12.38;;;1.60;99.90;;;;;;5063173;28;20593;-74
2022/12/09 03:20:22;;;;;;;18.00;12.77;;;1.50;99.90;;;;;;5055053;28;20217;-76
2022/12/09 03:23:10;;;;;;;20.63;14.30;;;1.40;99.90;;;;;;5065089;28;20204;-75
2022/12/09 03:25:59;;;;;;;22.92;15.30;;;1.30;99.90;;;;;;5057995;28;20232;-75
2022/12/09 03:28:50;;;;;;;22.55;14.95;;;1.20;99.90;;;;;;5063939;28;20236;-75
2022/12/09 03:31:37;;;;;;;27.05;16.00;;;1.20;99.90;;;;;;5062633;28;20288;-75
2022/12/09 03:34:26;;;;;;;23.60;15.45;;;1.20;99.90;;;;;;5066879;28;20223;-76
2022/12/09 03:37:15;;;;;;;19.90;15.18;;;1.40;99.90;;;;;;5059018;28;20245;-75
2022/12/09 03:40:01;;;;;;;22.60;14.98;;;1.30;99.90;;;;;;5065650;28;20291;-74
2022/12/09 03:42:54;;;;;;;21.90;14.50;;;1.40;99.90;;;;;;5062850;28;20334;-75
2022/12/09 03:45:40;;;;;;;19.48;15.18;;;1.50;99.90;;;;;;5066916;28;20227;-75
2022/12/09 03:48:25;;;;;;;23.17;14.25;;;1.60;99.90;;;;;;5060368;28;20580;-75
2022/12/09 03:51:16;;;;;;;21.77;13.77;;;1.70;99.90;;;;;;5063987;28;20224;-75
2022/12/09 03:54:06;;;;;;;20.35;13.50;;;1.80;99.90;;;;;;5071438;28;20208;-76
2022/12/09 03:56:54;;;;;;;22.50;13.13;;;1.80;99.90;;;;;;5065307;28;20258;-75
2022/12/09 03:59:43;;;;;;;17.25;12.93;;;1.80;99.90;;;;;;5062021;28;20594;-75
2022/12/09 04:02:29;;;;;;;19.15;13.95;;;1.80;99.90;;;;;;5066767;28;20204;-75
2022/12/09 04:05:15;;;;;;;19.27;14.60;;;1.80;99.90;;;;;;5064967;28;20224;-76
2022/12/09 04:08:00;;;;;;;20.67;13.43;;;1.90;99.90;;;;;;5067760;28;20224;-75
2022/12/09 04:10:46;;;;;;;18.77;12.27;;;1.80;99.90;;;;;;5053286;28;20213;-77
2022/12/09 04:13:32;;;;;;;19.20;13.82;;;1.80;99.90;;;;;;5069578;28;20200;-75
2022/12/09 04:16:19;;;;;;;16.70;11.95;;;1.80;99.90;;;;;;5059753;28;20207;-75
2022/12/09 04:19:04;;;;;;;16.27;12.38;;;1.80;99.90;;;;;;5068069;28;20211;-75
2022/12/09 04:21:50;;;;;;;18.10;13.70;;;1.80;99.90;;;;;;5061297;28;20250;-76
2022/12/09 04:24:35;;;;;;;20.52;13.40;;;1.70;99.90;;;;;;5063819;28;20213;-75
2022/12/09 04:27:21;;;;;;;19.45;13.02;;;1.60;99.90;;;;;;5062097;28;20247;-76
2022/12/09 04:30:08;;;;;;;20.40;12.20;;;1.70;99.90;;;;;;5064059;28;20520;-76
2022/12/09 04:32:55;;;;;;;21.08;13.35;;;1.80;99.90;;;;;;5070041;28;20254;-75
2022/12/09 04:35:40;;;;;;;17.77;12.40;;;1.70;99.90;;;;;;5064605;28;20204;-75
2022/12/09 04:38:26;;;;;;;20.45;14.32;;;1.60;99.90;;;;;;5061067;28;20227;-74
2022/12/09 04:41:12;;;;;;;19.85;13.18;;;1.50;99.90;;;;;;5062133;28;20212;-74
2022/12/09 04:43:58;;;;;;;22.85;15.05;;;1.50;99.90;;;;;;5071799;28;20592;-74
2022/12/09 04:46:43;;;;;;;18.60;14.18;;;1.50;99.90;;;;;;5072287;28;20223;-75
2022/12/09 04:49:31;;;;;;;21.27;14.38;;;1.60;99.90;;;;;;5062344;28;20324;-76
2022/12/09 04:52:17;;;;;;;21.92;13.75;;;1.70;99.90;;;;;;5068731;28;20249;-75
2022/12/09 04:55:02;;;;;;;21.25;14.73;;;1.60;99.90;;;;;;5067965;28;20315;-75
2022/12/09 04:57:48;;;;;;;22.73;16.60;;;1.50;99.90;;;;;;5067485;28;20224;-74
2022/12/09 05:00:33;;;;;;;21.55;14.30;;;1.50;99.90;;;;;;5056912;28;20204;-75
2022/12/09 05:03:19;;;;;;;20.42;14.55;;;1.50;99.90;;;;;;5063444;28;20227;-76
2022/12/09 05:06:08;;;;;;;22.33;14.98;;;1.20;99.90;;;;;;5068205;28;20236;-75
2022/12/09 05:08:54;;;;;;;22.70;16.45;;;1.10;99.90;;;;;;5063322;28;20211;-75
2022/12/09 05:11:39;;;;;;;24.23;16.25;;;1.20;99.90;;;;;;5056461;28;20217;-75
2022/12/09 05:14:25;;;;;;;26.35;16.95;;;1.20;99.90;;;;;;5063492;28;20207;-74
2022/12/09 05:17:10;;;;;;;20.42;15.98;;;1.20;99.90;;;;;;5071448;28;20274;-74
2022/12/09 05:19:56;;;;;;;26.17;16.08;;;1.40;99.90;;;;;;5062320;28;20208;-75
2022/12/09 05:22:43;;;;;;;23.92;15.40;;;1.50;99.90;;;;;;5060739;28;20200;-75
2022/12/09 05:25:28;;;;;;;25.58;15.65;;;1.60;99.90;;;;;;5063438;28;20242;-75
2022/12/09 05:28:14;;;;;;;24.50;15.48;;;1.60;99.90;;;;;;5070133;28;20313;-75
2022/12/09 05:31:01;;;;;;;22.50;15.30;;;1.60;99.90;;;;;;5063130;28;20224;-75
2022/12/09 05:33:47;;;;;;;25.75;17.08;;;1.50;99.90;;;;;;5061979;28;20685;-75
2022/12/09 05:36:33;;;;;;;35.97;16.20;;;1.60;99.90;;;;;;5059889;28;20201;-75
2022/12/09 05:39:19;;;;;;;24.33;15.70;;;1.70;99.90;;;;;;5065536;28;20212;-75
2022/12/09 05:42:05;;;;;;;24.27;16.05;;;1.70;99.90;;;;;;5062295;28;20624;-75
2022/12/09 05:44:50;;;;;;;25.08;15.52;;;1.60;99.90;;;;;;5065101;28;20581;-76
2022/12/09 05:47:36;;;;;;;22.83;15.07;;;1.60;99.90;;;;;;5068312;28;20819;-75
2022/12/09 05:50:22;;;;;;;22.05;15.60;;;1.60;99.90;;;;;;5065325;28;20204;-75
2022/12/09 05:53:07;;;;;;;37.60;17.80;;;1.50;99.90;;;;;;5069328;28;20199;-75
2022/12/09 05:55:55;;;;;;;28.80;19.30;;;1.60;99.90;;;;;;5070641;28;20219;-75
2022/12/09 05:58:40;;;;;;;27.27;20.55;;;1.50;99.90;;;;;;5059792;28;20221;-75
2022/12/09 06:01:27;;;;;;;26.17;18.65;;;1.40;99.90;;;;;;5062442;28;20208;-75
2022/12/09 06:04:13;;;;;;;29.90;17.23;;;1.40;99.90;;;;;;5067187;28;20242;-76
2022/12/09 06:06:58;;;;;;;24.52;15.60;;;1.20;99.90;;;;;;5056194;28;20224;-75
2022/12/09 06:09:44;;;;;;;25.20;17.02;;;1.00;99.90;;;;;;5058722;28;20717;-75
2022/12/09 06:12:31;;;;;;;25.42;15.27;;;1.00;99.90;;;;;;5059929;28;20200;-74
2022/12/09 06:15:16;;;;;;;25.98;17.48;;;0.90;99.90;;;;;;5065933;28;20192;-75
2022/12/09 06:18:02;;;;;;;25.08;15.60;;;0.90;99.90;;;;;;5061823;28;20232;-75
2022/12/09 06:20:47;;;;;;;28.23;18.00;;;0.90;99.90;;;;;;5059039;28;20275;-76
2022/12/09 06:23:35;;;;;;;23.92;16.25;;;0.80;99.90;;;;;;5059323;28;20310;-75
2022/12/09 06:26:23;;;;;;;27.33;17.70;;;0.60;99.90;;;;;;5065168;28;20224;-75
2022/12/09 06:29:10;;;;;;;31.58;23.17;;;0.50;99.90;;;;;;5064536;28;21052;-76
2022/12/09 06:31:55;;;;;;;30.08;21.80;;;0.50;99.90;;;;;;5058985;28;20304;-75
2022/12/09 06:34:41;;;;;;;27.15;17.98;;;0.40;99.90;;;;;;5057560;28;20331;-75
2022/12/09 06:37:27;;;;;;;35.25;22.98;;;0.30;99.90;;;;;;5064496;28;20359;-75
2022/12/09 06:40:13;;;;;;;37.78;24.30;;;0.50;99.90;;;;;;5056456;28;20216;-75
2022/12/09 06:42:59;;;;;;;30.60;22.05;;;0.60;99.90;;;;;;5059763;28;20272;-75
2022/12/09 06:45:46;;;;;;;29.52;20.65;;;0.70;99.90;;;;;;5066093;28;20291;-75
2022/12/09 06:48:31;;;;;;;26.98;19.50;;;0.60;99.90;;;;;;5060869;28;20220;-75
2022/12/09 06:51:18;;;;;;;24.02;18.38;;;0.70;99.90;;;;;;5059189;28;20205;-75
2022/12/09 06:54:05;;;;;;;30.17;20.98;;;0.80;99.90;;;;;;5062429;28;20701;-77
2022/12/09 06:56:51;;;;;;;31.17;19.40;;;0.70;99.90;;;;;;5062394;28;20224;-75
2022/12/09 06:59:37;;;;;;;25.73;18.45;;;0.60;99.90;;;;;;5057231;28;20673;-76
2022/12/09 07:02:24;;;;;;;21.85;16.20;;;0.50;99.90;;;;;;5065605;28;20201;-75
2022/12/09 07:05:10;;;;;;;101.53;50.50;;;0.50;99.90;;;;;;5063029;28;20221;-75
2022/12/09 07:07:56;;;;;;;93.88;48.40;;;0.40;99.90;;;;;;5065286;28;20601;-75
2022/12/09 07:10:44;;;;;;;39.65;26.25;;;0.50;99.90;;;;;;5059329;28;20203;-75
2022/12/09 07:13:30;;;;;;;31.77;21.73;;;0.60;99.90;;;;;;5063364;28;20703;-75
2022/12/09 07:16:16;;;;;;;27.70;19.85;;;0.60;99.90;;;;;;5059534;28;20204;-75
2022/12/09 07:19:03;;;;;;;27.95;16.80;;;0.60;99.90;;;;;;5065329;28;20203;-75
2022/12/09 07:21:50;;;;;;;25.23;17.50;;;0.50;99.90;;;;;;5071335;28;20216;-75
2022/12/09 07:24:36;;;;;;;27.13;18.92;;;0.40;99.90;;;;;;5057469;28;20247;-75
2022/12/09 07:27:22;;;;;;;28.35;16.52;;;0.60;99.90;;;;;;5070249;28;20252;-76
2022/12/09 07:30:08;;;;;;;24.70;15.23;;;0.70;99.90;;;;;;5056178;28;20219;-75
2022/12/09 07:32:54;;;;;;;29.92;16.88;;;0.70;99.90;;;;;;5062385;28;20204;-77
2022/12/09 07:35:41;;;;;;;32.90;16.20;;;0.80;99.90;;;;;;5058518;28;20691;-75
2022/12/09 07:38:27;;;;;;;25.50;17.77;;;0.80;99.90;;;;;;5064066;28;20224;-76
2022/12/09 07:41:16;;;;;;;36.17;17.65;;;0.90;99.90;;;;;;5071107;28;20229;-75
2022/12/09 07:44:02;;;;;;;23.80;17.05;;;0.90;99.90;;;;;;5069566;28;20225;-74
2022/12/09 07:46:47;;;;;;;24.33;17.90;;;0.80;99.90;;;;;;5066573;28;20346;-74
2022/12/09 07:49:33;;;;;;;28.67;16.10;;;0.80;99.90;;;;;;5058874;28;20275;-75
2022/12/09 07:52:20;;;;;;;29.95;17.25;;;0.80;99.90;;;;;;5063427;28;20209;-74
2022/12/09 07:55:07;;;;;;;22.20;15.70;;;0.90;99.90;;;;;;5064893;28;20575;-74
2022/12/09 07:57:53;;;;;;;26.25;17.85;;;0.90;99.90;;;;;;5065590;28;20618;-74
2022/12/09 08:00:38;;;;;;;30.92;20.08;;;0.90;99.90;;;;;;5064340;28;20330;-74
2022/12/09 08:03:24;;;;;;;30.00;18.45;;;0.80;99.90;;;;;;5067887;28;20205;-75
2022/12/09 08:06:12;;;;;;;30.85;17.70;;;0.70;99.90;;;;;;5057509;28;20232;-75
2022/12/09 08:09:00;;;;;;;21.10;14.10;;;0.80;99.90;;;;;;5067593;28;20266;-75
2022/12/09 08:11:46;;;;;;;20.33;14.55;;;1.00;99.90;;;;;;5068219;28;20208;-75
2022/12/09 08:14:32;;;;;;;19.35;13.75;;;1.20;99.90;;;;;;5063360;28;20756;-75
2022/12/09 08:17:17;;;;;;;22.88;15.05;;;1.30;99.90;;;;;;5060398;28;20727;-75
2022/12/09 08:20:03;;;;;;;24.27;15.48;;;1.40;99.90;;;;;;5070612;28;20228;-74
2022/12/09 08:22:49;;;;;;;21.88;15.57;;;1.40;99.90;;;;;;5062360;28;20689;-74
2022/12/09 08:25:36;;;;;;;21.77;15.15;;;1.40;99.90;;;;;;5064920;28;20328;-74
2022/12/09 08:28:21;;;;;;;23.30;16.52;;;1.40;99.90;;;;;;5063635;22;20241;-77
2022/12/09 08:31:07;;;;;;;29.38;16.25;;;1.40;99.90;;;;;;5052210;28;20213;-77
2022/12/09 08:33:53;;;;;;;27.40;17.55;;;1.30;99.90;;;;;;5038732;28;20229;-77
2022/12/09 08:36:39;;;;;;;42.60;17.70;;;1.20;99.90;;;;;;5038023;28;20288;-77
2022/12/09 08:39:25;;;;;;;28.77;20.27;;;1.00;99.90;;;;;;5025949;28;20310;-77
2022/12/09 08:42:12;;;;;;;28.27;20.40;;;1.00;99.90;;;;;;5025850;28;20214;-77
2022/12/09 08:44:57;;;;;;;32.85;21.52;;;0.90;99.90;;;;;;5024474;28;20687;-77
2022/12/09 08:47:43;;;;;;;34.10;21.30;;;1.00;99.90;;;;;;5024575;28;20225;-77
2022/12/09 08:50:29;;;;;;;26.20;18.70;;;1.20;99.90;;;;;;5030450;28;20256;-77
2022/12/09 08:53:14;;;;;;;28.40;20.83;;;1.30;99.90;;;;;;5030468;28;20229;-77
2022/12/09 08:56:07;;;;;;;32.30;22.02;;;1.40;99.90;;;;;;5017317;28;20299;-77
2022/12/09 08:58:54;;;;;;;33.08;23.70;;;1.30;99.90;;;;;;5026132;28;20326;-77
2022/12/09 09:01:39;;;;;;;35.22;21.73;;;1.30;99.90;;;;;;5020534;28;20209;-77
2022/12/09 09:04:25;;;;;;;31.80;23.15;;;1.40;99.90;;;;;;5026679;28;20309;-77
2022/12/09 09:07:11;;;;;;;30.90;21.70;;;1.60;99.90;;;;;;5030771;28;21815;-77
2022/12/09 09:09:56;;;;;;;31.65;21.73;;;1.60;99.90;;;;;;5032762;28;20206;-77
2022/12/09 09:12:42;;;;;;;33.78;21.08;;;1.60;99.90;;;;;;5020547;28;20300;-77
2022/12/09 09:15:28;;;;;;;40.33;21.80;;;1.60;99.90;;;;;;5020467;28;20273;-77
2022/12/09 09:18:14;;;;;;;37.35;21.33;;;1.80;99.90;;;;;;5027129;28;20271;-77
2022/12/09 09:21:00;;;;;;;34.60;23.17;;;1.80;99.90;;;;;;5020449;28;20248;-79
2022/12/09 09:23:46;;;;;;;34.75;23.42;;;1.90;99.90;;;;;;5017254;28;20202;-77
2022/12/09 09:26:32;;;;;;;39.70;26.02;;;2.00;99.90;;;;;;5029329;28;20233;-79
2022/12/09 09:29:20;;;;;;;32.97;24.42;;;2.10;99.90;;;;;;5027366;28;20734;-77
2022/12/09 09:32:07;;;;;;;26.20;20.00;;;2.10;99.90;;;;;;5017329;28;20284;-77
2022/12/09 09:34:53;;;;;;;26.05;19.08;;;2.20;99.90;;;;;;5020458;28;20206;-77
2022/12/09 09:37:39;;;;;;;29.38;20.45;;;2.40;99.90;;;;;;5023039;28;20726;-77
2022/12/09 09:40:25;;;;;;;23.48;15.93;;;2.40;99.90;;;;;;5017152;28;20304;-77
2022/12/09 09:43:16;;;;;;;25.75;19.50;;;2.50;99.90;;;;;;5022322;28;20198;-77
2022/12/09 09:46:04;;;;;;;25.40;15.57;;;2.70;99.90;;;;;;5018561;28;20615;-77
2022/12/09 09:48:52;;;;;;;20.77;15.40;;;2.80;99.90;;;;;;5024877;28;20416;-77
2022/12/09 09:51:39;;;;;;;21.48;15.25;;;2.90;99.90;;;;;;5022211;28;20385;-77
2022/12/09 09:54:24;;;;;;;26.63;15.48;;;3.00;99.90;;;;;;5024946;28;20280;-77
2022/12/09 09:57:14;;;;;;;26.23;16.33;;;3.00;99.90;;;;;;5021575;28;20197;-77
2022/12/09 10:00:11;;;;;;;22.92;15.68;;;3.10;99.90;;;;;;5021429;28;20214;-77
2022/12/09 10:03:00;;;;;;;26.67;16.00;;;3.20;99.90;;;;;;5018001;28;20210;-77
2022/12/09 10:05:52;;;;;;;21.63;16.15;;;3.30;99.90;;;;;;5017690;28;20297;-77
2022/12/09 10:08:46;;;;;;;20.67;15.05;;;3.50;99.90;;;;;;5018460;28;20218;-77
2022/12/09 10:11:39;;;;;;;22.02;14.60;;;3.60;99.90;;;;;;5015414;28;20206;-77
2022/12/09 10:14:38;;;;;;;22.75;14.73;;;3.60;99.90;;;;;;5029356;28;20599;-77
2022/12/09 10:17:28;;;;;;;18.80;14.25;;;3.70;99.90;;;;;;5021779;28;20229;-77
2022/12/09 10:20:16;;;;;;;23.95;15.48;;;3.70;99.90;;;;;;5033010;28;20213;-77
2022/12/09 10:23:06;;;;;;;23.88;15.18;;;3.70;99.90;;;;;;5024747;28;20201;-78
2022/12/09 10:25:56;;;;;;;23.85;15.77;;;3.80;99.90;;;;;;5027365;28;20213;-77
2022/12/09 10:28:46;;;;;;;31.23;15.95;;;4.10;99.90;;;;;;5018430;28;20238;-77
2022/12/09 10:31:32;;;;;;;21.80;14.50;;;4.40;99.90;;;;;;5029993;28;20202;-77
2022/12/09 10:34:17;;;;;;;22.50;14.85;;;4.60;99.90;;;;;;5031460;28;20220;-77
2022/12/09 10:37:03;;;;;;;22.20;14.88;;;4.80;99.90;;;;;;5029199;28;20240;-77
2022/12/09 10:39:54;;;;;;;19.50;13.90;;;5.10;99.90;;;;;;5023805;28;20213;-77
2022/12/09 10:45:51;;;;;;;20.90;14.68;;;5.70;99.90;;;;;;5027126;28;20732;-77
2022/12/09 10:48:40;;;;;;;18.15;12.82;;;6.00;99.90;;;;;;5026711;28;20706;-77
2022/12/09 10:51:28;;;;;;;17.52;12.32;;;6.20;99.90;;;;;;5022605;28;20256;-77
2022/12/09 10:54:25;;;;;;;20.50;13.70;;;6.30;99.90;;;;;;5032730;28;20201;-77
2022/12/09 10:57:28;;;;;;;19.38;12.75;;;6.20;99.90;;;;;;5029623;28;20225;-77
2022/12/09 11:00:22;;;;;;;21.80;15.10;;;6.10;99.90;;;;;;5026578;28;20210;-79
2022/12/09 11:03:25;;;;;;;30.65;14.00;;;6.00;99.90;;;;;;5028239;28;20285;-77
2022/12/09 11:06:31;;;;;;;19.67;13.60;;;5.90;99.90;;;;;;5028568;28;20225;-77
2022/12/09 11:09:56;;;;;;;18.23;12.00;;;5.80;99.90;;;;;;5028140;28;20690;-77
2022/12/09 11:12:44;;;;;;;19.55;13.65;;;5.60;99.90;;;;;;5019402;28;20684;-77
2022/12/09 11:15:35;;;;;;;19.90;13.60;;;5.40;99.90;;;;;;5026790;28;20306;-77
2022/12/09 11:18:26;;;;;;;22.05;14.27;;;5.20;99.90;;;;;;5020600;28;20227;-77
2022/12/09 11:21:32;;;;;;;19.00;13.77;;;5.10;99.90;;;;;;5022728;28;20356;-77
2022/12/09 11:24:23;;;;;;;24.50;15.02;;;5.10;99.90;;;;;;5020041;28;20572;-77
2022/12/09 11:27:28;;;;;;;21.77;15.15;;;5.00;99.90;;;;;;5021100;28;20257;-77
2022/12/09 11:30:18;;;;;;;24.40;15.57;;;5.00;99.90;;;;;;5024256;28;20229;-77
2022/12/09 11:33:22;;;;;;;26.48;14.18;;;5.00;99.90;;;;;;5028096;28;20211;-77
2022/12/09 11:36:18;;;;;;;23.88;15.82;;;4.90;99.90;;;;;;5028283;28;20225;-77
2022/12/09 11:39:19;;;;;;;26.10;17.38;;;4.90;99.90;;;;;;5023174;28;20295;-77
2022/12/09 11:42:14;;;;;;;25.17;16.90;;;4.90;99.90;;;;;;5021414;28;20209;-77
2022/12/09 11:45:03;;;;;;;25.38;15.15;;;4.80;99.90;;;;;;5026984;28;20396;-77
2022/12/09 11:47:51;;;;;;;23.35;16.05;;;4.70;99.90;;;;;;5019635;28;20234;-77
2022/12/09 11:50:41;;;;;;;23.00;16.88;;;4.70;99.90;;;;;;5031152;28;20198;-77
2022/12/09 11:53:29;;;;;;;31.50;16.48;;;4.70;99.90;;;;;;5029665;28;20240;-77
2022/12/09 11:56:18;;;;;;;21.50;16.60;;;4.70;99.90;;;;;;5026744;28;20205;-75
2022/12/09 11:59:10;;;;;;;24.92;16.25;;;4.80;99.90;;;;;;5023648;28;20268;-74
2022/12/09 12:02:04;;;;;;;23.40;16.00;;;4.80;99.90;;;;;;5022838;28;20210;-77
2022/12/09 12:04:58;;;;;;;19.75;14.50;;;4.80;99.90;;;;;;5027906;28;20225;-75
2022/12/09 12:07:47;;;;;;;22.90;15.73;;;4.90;99.90;;;;;;5027357;28;20303;-77
2022/12/09 12:10:37;;;;;;;23.58;17.08;;;4.80;99.90;;;;;;5025850;28;20201;-75
2022/12/09 12:13:27;;;;;;;27.58;16.95;;;4.80;99.90;;;;;;5026158;28;20229;-75
2022/12/09 12:16:18;;;;;;;22.25;15.50;;;4.80;99.90;;;;;;5029404;28;20202;-76
2022/12/09 12:19:09;;;;;;;21.67;14.05;;;4.90;99.90;;;;;;5025574;28;20303;-77
2022/12/09 12:22:22;;;;;;;23.55;15.40;;;4.80;99.90;;;;;;5020786;28;20209;-77
2022/12/09 12:25:23;;;;;;;23.15;16.63;;;4.90;99.90;;;;;;5022081;28;20572;-77
2022/12/09 12:28:34;;;;;;;23.10;16.52;;;4.90;99.90;;;;;;5029162;28;20309;-77
2022/12/09 12:31:33;;;;;;;22.08;14.15;;;4.90;99.90;;;;;;5023776;28;20202;-77
2022/12/09 12:34:37;;;;;;;22.05;14.90;;;4.90;99.90;;;;;;5025598;28;21164;-76
2022/12/09 12:37:38;;;;;;;21.27;14.32;;;4.90;99.90;;;;;;5025530;28;21038;-77
2022/12/09 12:40:36;;;;;;;22.00;14.45;;;4.90;99.90;;;;;;5026187;28;20779;-77
2022/12/09 12:47:02;;;;;;;20.17;14.00;;;5.10;99.90;;;;;;5026273;28;20217;-77
2022/12/09 12:50:14;;;;;;;21.05;13.75;;;5.10;99.90;;;;;;5025056;28;20276;-77
2022/12/09 12:53:10;;;;;;;17.52;12.43;;;5.50;99.90;;;;;;5027724;28;20248;-77
2022/12/09 12:56:00;;;;;;;20.02;13.57;;;5.60;99.90;;;;;;5017564;28;20575;-77
2022/12/09 12:59:05;;;;;;;21.65;14.98;;;5.40;99.90;;;;;;5024502;28;20272;-78
2022/12/09 13:01:53;;;;;;;24.88;15.30;;;5.30;99.90;;;;;;5024967;28;20244;-77
2022/12/09 13:04:45;;;;;;;24.33;15.45;;;5.20;99.90;;;;;;5027122;28;20217;-77
2022/12/09 13:07:38;;;;;;;25.27;16.17;;;5.10;99.90;;;;;;5024692;28;20232;-77
2022/12/09 13:10:34;;;;;;;23.85;15.90;;;5.00;99.90;;;;;;5024545;28;20317;-77
2022/12/09 13:13:25;;;;;;;20.23;14.82;;;4.90;99.90;;;;;;5024715;28;20206;-77
2022/12/09 13:16:19;;;;;;;21.73;15.73;;;4.90;99.90;;;;;;5026962;28;20197;-77
2022/12/09 13:19:11;;;;;;;25.30;18.33;;;4.80;99.90;;;;;;5025639;28;20217;-77
2022/12/09 13:21:57;;;;;;;22.17;15.20;;;4.80;99.90;;;;;;5026295;28;20201;-78
2022/12/09 13:24:52;;;;;;;20.40;15.25;;;4.80;99.90;;;;;;5022557;28;20305;-77
2022/12/09 13:27:43;;;;;;;20.30;14.35;;;4.70;99.90;;;;;;5020145;28;20233;-77
2022/12/09 13:30:36;;;;;;;20.90;14.63;;;4.70;99.90;;;;;;5018422;28;20557;-77
2022/12/09 13:33:41;;;;;;;18.35;12.73;;;4.80;99.90;;;;;;5028504;28;20200;-77
2022/12/09 13:36:37;;;;;;;22.17;13.95;;;4.70;99.90;;;;;;5026636;28;20257;-77
2022/12/09 13:39:54;;;;;;;22.33;15.32;;;4.70;99.90;;;;;;5027652;28;20202;-77
2022/12/09 13:42:55;;;;;;;19.02;12.85;;;4.70;99.90;;;;;;5023523;28;20208;-77
2022/12/09 13:45:50;;;;;;;20.63;14.07;;;4.70;99.90;;;;;;5024779;28;20206;-77
2022/12/09 13:48:45;;;;;;;20.83;14.07;;;4.50;99.90;;;;;;5024700;28;20324;-77
2022/12/09 13:51:44;;;;;;;19.88;13.90;;;4.50;99.90;;;;;;5021183;28;20210;-77
2022/12/09 13:54:30;;;;;;;21.58;14.35;;;4.50;99.90;;;;;;5018082;28;20250;-77
2022/12/09 13:57:27;;;;;;;20.45;14.15;;;4.50;99.90;;;;;;5025709;28;20585;-77
2022/12/09 14:00:17;;;;;;;21.58;14.35;;;4.50;99.90;;;;;;5020373;28;20197;-77
2022/12/09 14:03:17;;;;;;;20.88;15.13;;;4.40;99.90;;;;;;5032446;28;20205;-77
2022/12/09 14:06:06;;;;;;;21.23;14.20;;;4.40;99.90;;;;;;5022239;28;20221;-77
2022/12/09 14:09:02;;;;;;;20.83;14.13;;;4.30;99.90;;;;;;5022630;28;20238;-77
2022/12/09 14:11:50;;;;;;;21.23;15.82;;;4.30;99.90;;;;;;5024923;28;20197;-77
2022/12/09 14:14:55;;;;;;;25.80;15.18;;;4.30;99.90;;;;;;5024829;28;20214;-77
2022/12/09 14:18:02;;;;;;;26.80;17.95;;;4.30;99.90;;;;;;5026073;28;20216;-78
2022/12/09 14:21:26;;;;;;;21.83;15.93;;;4.20;99.90;;;;;;5021555;28;20624;-77
2022/12/09 14:24:32;;;;;;;19.83;13.75;;;4.30;99.90;;;;;;5021348;28;20764;-77
2022/12/09 14:29:54;;;;;;;20.50;14.25;;;4.30;99.90;;;;;;4999394;28;20290;-75
2022/12/09 14:32:53;;;;;;;27.20;16.90;;;4.30;99.90;;;;;;5007893;28;20672;-75
2022/12/09 14:35:44;;;;;;;18.63;13.30;;;4.30;99.90;;;;;;4997805;28;20213;-75
2022/12/09 14:38:35;;;;;;;23.00;15.05;;;4.30;99.90;;;;;;4997713;28;20305;-75
2022/12/09 14:41:27;;;;;;;20.38;14.82;;;4.30;99.90;;;;;;5000165;28;20210;-75